Flight Track Log - Related Links

Times and Time Zones

All times are in EDT time to prevent confusion due to time zone crossing. See the N119BJ flight status page for this flight to view local times or setup timezone preferences in your user account.

Time Position Orientation Groundspeed Altitude Reporting Facility
EDT Latitude Longitude Course Direction KTS MPH feet Rate Location/Type
Fri 12:30:48 PM 41.1167 -72.7167 85° East 151 174 5,600  Level New York TRACON
Fri 12:31:48 PM 41.1167 -72.6500 90° East 152 175 5,600  Level New York TRACON
Fri 12:32:48 PM 41.1167 -72.6000 90° East 149 171 5,600  Level New York TRACON
Fri 12:33:48 PM 41.1167 -72.5500 90° East 153 176 5,600  Level New York TRACON
Fri 12:34:48 PM 41.1333 -72.4833 72° East 153 176 5,600 -39 Level New York TRACON
Fri 12:36:00 PM 41.1533 -72.2872 85° East  Level Estimated
Fri 12:36:23 PM 41.1311 -72.4069 92° East 153 176 5,500  Level Boston Center
Fri 12:37:42 PM 41.1353 -72.3353 86° East 153 176 5,500 -41 Level Boston Center
Fri 12:38:48 PM 41.1394 -72.2719 85° East 150 173 5,400 -47 Descending Boston Center
Fri 12:39:49 PM 41.1414 -72.2169 87° East 147 169 5,400 50 Level Boston Center
Fri 12:40:49 PM 41.1456 -72.1644 84° East 147 169 5,500 50 Climbing Boston Center
Fri 12:41:50 PM 41.1494 -72.1039 85° East 153 176 5,500  Level Boston Center
Fri 12:42:51 PM 41.1514 -72.0514 87° East 149 171 5,500  Level Boston Center
Fri 12:43:58 PM 41.1575 -71.9881 83° East 154 177 5,500  Level Boston Center
Fri 12:44:53 PM 41.1572 -71.9356 90° East 153 176 5,500 -49 Level Boston Center
Fri 12:46:00 PM 41.1611 -71.8750 85° East 150 173 5,400  Descending Boston Center
Fri 12:47:00 PM 41.1650 -71.8169 85° East 157 181 5,500  Climbing Boston Center
Fri 12:48:10 PM 41.1686 -71.7508 86° East 166 191 5,400  Descending Boston Center
Fri 12:49:05 PM 41.1725 -71.7039 84° East 145 167 5,500 52 Climbing Boston Center
Fri 12:50:05 PM 41.1764 -71.6486 85° East 151 174 5,500  Level Boston Center
Fri 12:51:05 PM 41.1758 -71.5908 91° East 156 180 5,500  Level Boston Center
Fri 12:52:00 PM 41.1819 -71.5411 81° East 159 183 5,500  Level Boston Center
Fri 12:52:54 PM 41.1836 -71.4914 87° East 152 175 5,500  Level Boston Center
Fri 12:53:55 PM 41.1872 -71.4278 86° East 154 177 5,500  Level Boston Center
Fri 12:55:04 PM 41.1886 -71.3672 88° East 154 177 5,500  Level Boston Center
Fri 12:55:59 PM 41.1922 -71.3147 85° East 152 175 5,500  Level Boston Center
Fri 12:56:59 PM 41.1958 -71.2567 85° East 154 177 5,500  Level Boston Center
Fri 12:58:00 PM 41.1973 -71.1921 88° East  Level FlightAware Approximate
Fri 01:05:00 PM 41.1089 -70.7848 76° East  Level FlightAware Approximate
Fri 01:06:00 PM 41.1201 -70.7232 76° East  Level FlightAware Approximate
Fri 01:07:00 PM 41.1312 -70.6615 76° East  Level FlightAware Approximate
Fri 01:08:00 PM 41.1471 -70.6018 69° East  Level FlightAware Approximate
Fri 01:09:00 PM 41.1641 -70.5424 69° East  Level FlightAware Approximate
Fri 01:10:00 PM 41.1705 -70.4802 76° East  Level FlightAware Approximate
Fri 01:11:00 PM 41.1823 -70.4187 76° East  Level FlightAware Approximate
Fri 01:12:00 PM 41.1940 -70.3572 76° East  Level FlightAware Approximate
Fri 01:13:00 PM 41.2057 -70.2957 76° East  Level FlightAware Approximate
Fri 01:14:00 PM 41.2174 -70.2341 76° East  Level FlightAware Approximate
Fri 01:15:00 PM 41.2291 -70.1725 76° East  Level FlightAware Approximate
Fri 01:16:00 PM 41.2399 -70.1106 77° East  Level FlightAware Approximate
Fri 01:17:00 PM 41.2500 -70.0500 77° East  Level FlightAware Approximate
Fri 01:18:00 PM 41.2531 -70.0603 77° East  Level Estimated
Fri 01:19:00 PM 41.2531 -70.0603 77° East  Level Estimated
Fri 01:20:00 PM 41.2531 -70.0603 77° East  Level Estimated
Fri 01:21:00 PM 41.2531 -70.0603 77° East  Level Estimated
Fri 01:22:00 PM 41.2531 -70.0603 77° East  Level Estimated
Fri 01:23:00 PM 41.2531 -70.0603 77° East  Level Estimated
Fri 01:24:00 PM 41.2531 -70.0603 77° East  Level Estimated
Fri 01:25:00 PM 41.2531 -70.0603 77° East  Level Estimated
Fri 01:26:00 PM 41.2531 -70.0603 77° East  Level Estimated
Fri 01:27:00 PM 41.2531 -70.0603 77° East  Level Estimated
Fri 01:28:00 PM 41.2531 -70.0603 77° East  Level Estimated
Fri 01:29:00 PM 41.2531 -70.0603 77° East  Level Estimated
Fri 01:30:00 PM 41.2531 -70.0603 77° East  Level Estimated
Fri 01:31:00 PM 41.2531 -70.0603 77° East  Level Estimated
Fri 01:32:00 PM 41.2531 -70.0603 77° East  Level Estimated
Fri 01:33:00 PM 41.2531 -70.0603 77° East  Level Estimated
Fri 01:34:00 PM 41.2531 -70.0603 77° East  Level Estimated
Fri 01:35:00 PM 41.2531 -70.0603 77° East  Level Estimated
Fri 01:36:00 PM 41.2531 -70.0603 77° East  Level Estimated
Fri 01:37:00 PM 41.2531 -70.0603 77° East  Level Estimated

Login

Don't have an account? Register now (free) for customized features, flight alerts, and more!